Time;durP1;ratioP1;P1;durP2;ratioP2;P2;SDS_P1;SDS_P2;PMS_P1;PMS_P2;Temp;Humidity;BMP_temperature;BMP_pressure;BME280_temperature;BME280_humidity;BME280_pressure;Samples;Min_cycle;Max_cycle;Signal;HPM_P1;HPM_P2
2023/06/08 00:02:04;;;;;;;;;;;;;;;16.93;65.57;96289.91;5044457;28;20133;-76
2023/06/08 00:04:33;;;;;;;;;;;;;;;16.90;65.17;96298.34;5045109;28;19970;-76
2023/06/08 00:06:59;;;;;;;;;;;;;;;16.90;65.80;96302.88;5048657;28;19962;-72
2023/06/08 00:09:25;;;;;;;;;;;;;;;16.86;65.66;96288.56;5048148;28;19941;-82
2023/06/08 00:11:53;;;;;;;;;;;;;;;16.83;65.72;96300.47;5048302;28;20271;-81
2023/06/08 00:14:19;;;;;;;;;;;;;;;16.78;66.10;96295.94;5048168;28;19956;-81
2023/06/08 00:16:48;;;;;;;;;;;;;;;16.73;66.74;96303.84;5048426;28;20308;-82
2023/06/08 00:19:14;;;;;;;;;;;;;;;16.67;66.99;96302.25;5048159;28;19954;-82
2023/06/08 00:21:42;;;;;;;;;;;;;;;16.61;67.60;96298.81;5048392;28;19982;-81
2023/06/08 00:24:11;;;;;;;;;;;;;;;16.58;67.50;96301.94;5046882;28;20152;-86
2023/06/08 00:26:37;;;;;;;;;;;;;;;16.55;68.76;96299.03;5048187;28;19969;-73
2023/06/08 00:29:03;;;;;;;;;;;;;;;16.52;68.71;96307.50;5048343;28;19962;-73
2023/06/08 00:31:29;;;;;;;;;;;;;;;16.47;68.41;96296.91;5048054;28;19972;-73
2023/06/08 00:33:55;;;;;;;;;;;;;;;16.42;68.39;96309.06;5048152;28;19956;-73
2023/06/08 00:36:21;;;;;;;;;;;;;;;16.39;68.26;96304.25;5047138;28;20102;-73
2023/06/08 00:38:47;;;;;;;;;;;;;;;16.36;68.55;96299.50;5048304;28;19994;-73
2023/06/08 00:41:13;;;;;;;;;;;;;;;16.34;68.71;96298.16;5047615;28;19977;-73
2023/06/08 00:43:42;;;;;;;;;;;;;;;16.31;68.91;96294.16;5047627;28;19987;-76
2023/06/08 00:46:08;;;;;;;;;;;;;;;16.29;68.98;96293.63;5046362;28;19974;-86
2023/06/08 00:48:34;;;;;;;;;;;;;;;16.22;69.06;96301.78;5047870;28;20244;-86
2023/06/08 00:51:01;;;;;;;;;;;;;;;16.18;69.75;96308.66;5047711;28;19964;-87
2023/06/08 00:53:27;;;;;;;;;;;;;;;16.15;69.81;96303.09;5047873;28;19967;-86
2023/06/08 00:55:54;;;;;;;;;;;;;;;16.09;70.17;96298.84;5047630;28;19956;-86
2023/06/08 00:58:20;;;;;;;;;;;;;;;16.02;69.87;96286.63;5047126;28;20240;-86
2023/06/08 01:00:46;;;;;;;;;;;;;;;15.97;70.29;96285.78;5047645;28;19950;-76
2023/06/08 01:03:14;;;;;;;;;;;;;;;15.95;70.35;96279.97;5047661;28;19977;-85
2023/06/08 01:05:44;;;;;;;;;;;;;;;15.91;70.46;96274.38;5046688;28;19953;-73
2023/06/08 01:08:10;;;;;;;;;;;;;;;15.88;70.42;96276.75;5047365;28;19961;-73
2023/06/08 01:10:39;;;;;;;;;;;;;;;15.85;70.27;96269.31;5045884;28;20314;-73
2023/06/08 01:13:10;;;;;;;;;;;;;;;15.82;70.41;96263.50;5047393;28;19959;-73
2023/06/08 01:15:39;;;;;;;;;;;;;;;15.80;70.98;96272.75;5047005;28;19952;-73
2023/06/08 01:18:07;;;;;;;;;;;;;;;15.76;71.23;96267.16;5047137;28;19959;-73
2023/06/08 01:20:36;;;;;;;;;;;;;;;15.74;71.50;96263.97;5047242;28;20269;-73
2023/06/08 01:23:07;;;;;;;;;;;;;;;15.72;71.34;96270.56;5047203;28;20139;-73
2023/06/08 01:25:35;;;;;;;;;;;;;;;15.68;71.65;96266.81;5047225;28;19952;-73
2023/06/08 01:28:15;;;;;;;;;;;;;;;15.66;72.05;96268.91;5046556;28;19957;-73
2023/06/08 01:30:42;;;;;;;;;;;;;;;15.62;73.16;96276.53;5046650;28;19961;-73
2023/06/08 01:33:10;;;;;;;;;;;;;;;15.59;72.87;96269.94;5046687;28;19963;-73
2023/06/08 01:35:36;;;;;;;;;;;;;;;15.56;72.91;96262.50;5046705;28;19954;-73
2023/06/08 01:38:12;;;;;;;;;;;;;;;15.51;72.65;96274.88;5047112;28;19954;-75
2023/06/08 01:40:42;;;;;;;;;;;;;;;15.45;72.19;96268.75;5047009;28;20230;-79
2023/06/08 01:43:09;;;;;;;;;;;;;;;15.39;72.77;96270.59;5045636;28;20277;-79
2023/06/08 01:45:38;;;;;;;;;;;;;;;15.33;72.96;96278.69;5045377;28;19969;-78
2023/06/08 01:48:05;;;;;;;;;;;;;;;15.31;73.51;96271.03;5045493;28;19963;-78
2023/06/08 01:50:32;;;;;;;;;;;;;;;15.30;74.41;96277.38;5045340;28;19972;-79
2023/06/08 01:52:58;;;;;;;;;;;;;;;15.28;73.42;96271.53;5045384;28;20014;-79
2023/06/08 01:55:24;;;;;;;;;;;;;;;15.27;73.64;96269.16;5046789;28;19959;-73
2023/06/08 01:57:50;;;;;;;;;;;;;;;15.22;74.52;96267.25;5046210;28;20243;-75
2023/06/08 02:00:17;;;;;;;;;;;;;;;15.16;74.99;96268.25;5046390;28;19983;-86
2023/06/08 02:02:44;;;;;;;;;;;;;;;15.13;75.19;96264.28;5046220;28;19969;-86
2023/06/08 02:05:11;;;;;;;;;;;;;;;15.09;74.90;96265.81;5046236;28;20266;-86
2023/06/08 02:07:37;;;;;;;;;;;;;;;15.07;74.33;96261.84;5046235;28;19962;-86
2023/06/08 02:10:04;;;;;;;;;;;;;;;15.02;74.34;96263.41;5046198;28;19975;-85
2023/06/08 02:12:30;;;;;;;;;;;;;;;15.02;74.37;96267.88;5046385;28;19960;-85
2023/06/08 02:14:56;;;;;;;;;;;;;;;15.01;75.18;96268.91;5046239;28;20022;-73
2023/06/08 02:17:27;;;;;;;;;;;;;;;14.99;74.87;96263.91;5045855;28;19961;-81
2023/06/08 02:19:56;;;;;;;;;;;;;;;14.96;74.76;96260.97;5045262;28;20115;-81
2023/06/08 02:22:22;;;;;;;;;;;;;;;14.90;75.49;96264.59;5046200;28;19964;-81
2023/06/08 02:24:49;;;;;;;;;;;;;;;14.87;75.49;96270.41;5046082;28;19954;-82
2023/06/08 02:27:15;;;;;;;;;;;;;;;14.84;75.99;96266.38;5045143;28;19961;-81
2023/06/08 02:29:41;;;;;;;;;;;;;;;14.80;75.97;96275.84;5044957;28;20148;-81
2023/06/08 02:32:07;;;;;;;;;;;;;;;14.74;75.95;96275.00;5045813;28;19972;-76
2023/06/08 02:34:35;;;;;;;;;;;;;;;14.71;76.27;96279.97;5044505;28;19978;-76
2023/06/08 02:37:01;;;;;;;;;;;;;;;14.69;77.11;96280.22;5045854;28;19971;-76
2023/06/08 02:39:27;;;;;;;;;;;;;;;14.66;76.94;96285.19;5044430;28;19964;-76
2023/06/08 02:41:53;;;;;;;;;;;;;;;14.66;76.68;96272.00;5044256;28;19957;-76
2023/06/08 02:44:19;;;;;;;;;;;;;;;14.62;76.76;96271.72;5045825;28;20184;-76
2023/06/08 02:46:45;;;;;;;;;;;;;;;14.61;77.23;96270.94;5045080;28;20186;-76
2023/06/08 02:49:11;;;;;;;;;;;;;;;14.60;76.75;96273.81;5045606;28;19947;-76
2023/06/08 02:51:36;;;;;;;;;;;;;;;14.58;77.41;96273.25;5045358;28;20008;-76
2023/06/08 02:54:02;;;;;;;;;;;;;;;14.55;77.51;96274.56;5045762;28;19951;-80
2023/06/08 02:56:28;;;;;;;;;;;;;;;14.52;77.43;96271.56;5045568;28;19958;-81
2023/06/08 02:58:54;;;;;;;;;;;;;;;14.51;78.20;96275.22;5045617;28;19983;-81
2023/06/08 03:01:21;;;;;;;;;;;;;;;14.47;77.81;96272.31;5045538;28;19963;-81
2023/06/08 03:03:48;;;;;;;;;;;;;;;14.43;78.04;96273.06;5045139;28;19957;-81
2023/06/08 03:06:17;;;;;;;;;;;;;;;14.40;79.17;96275.16;5045366;28;19953;-81
2023/06/08 03:08:46;;;;;;;;;;;;;;;14.38;78.88;96279.03;5045139;28;19957;-81
2023/06/08 03:11:13;;;;;;;;;;;;;;;14.34;78.89;96278.75;5045165;28;19966;-76
2023/06/08 03:13:39;;;;;;;;;;;;;;;14.32;78.20;96288.75;5045256;28;19962;-75
2023/06/08 03:16:05;;;;;;;;;;;;;;;14.32;78.68;96294.03;5043786;28;19987;-75
2023/06/08 03:18:30;;;;;;;;;;;;;;;14.30;78.79;96296.13;5044662;28;19962;-75
2023/06/08 03:20:58;;;;;;;;;;;;;;;14.31;79.31;96291.63;5044100;28;20006;-75
2023/06/08 03:23:24;;;;;;;;;;;;;;;14.25;79.64;96298.69;5044510;28;20148;-75
2023/06/08 03:25:50;;;;;;;;;;;;;;;14.23;80.69;96303.41;5044695;28;19949;-76
2023/06/08 03:28:16;;;;;;;;;;;;;;;14.17;81.12;96299.09;5044691;28;20021;-81
2023/06/08 03:30:42;;;;;;;;;;;;;;;14.17;81.25;96304.38;5043374;28;20254;-78
2023/06/08 03:33:08;;;;;;;;;;;;;;;14.17;81.09;96307.84;5044934;28;20036;-79
2023/06/08 03:35:34;;;;;;;;;;;;;;;14.18;81.56;96305.97;5044924;28;19955;-78
2023/06/08 03:38:00;;;;;;;;;;;;;;;14.18;81.70;96305.97;5043361;28;19957;-79
2023/06/08 03:40:26;;;;;;;;;;;;;;;14.20;81.90;96303.91;5026065;28;19999;-78
2023/06/08 03:42:51;;;;;;;;;;;;;;;14.19;81.81;96300.47;5044786;28;19955;-79
2023/06/08 03:45:17;;;;;;;;;;;;;;;14.19;81.78;96289.09;5044200;28;19949;-79
2023/06/08 03:47:43;;;;;;;;;;;;;;;14.21;81.63;96292.28;5044539;28;19978;-77
2023/06/08 03:50:11;;;;;;;;;;;;;;;14.24;81.53;96286.53;5044219;28;20172;-81
2023/06/08 03:52:40;;;;;;;;;;;;;;;14.28;81.80;96287.66;5044662;28;19963;-81
2023/06/08 03:55:07;;;;;;;;;;;;;;;14.33;81.27;96281.63;5044621;28;19967;-81
2023/06/08 03:57:33;;;;;;;;;;;;;;;14.35;82.03;96275.06;5043408;28;19962;-81
2023/06/08 03:59:59;;;;;;;;;;;;;;;14.38;82.44;96271.13;5044300;28;19967;-81
2023/06/08 04:02:25;;;;;;;;;;;;;;;14.42;82.43;96277.50;5044368;28;20021;-82
2023/06/08 04:04:53;;;;;;;;;;;;;;;14.45;82.24;96271.75;5044418;28;19957;-87
2023/06/08 04:07:20;;;;;;;;;;;;;;;14.49;83.78;96278.16;5043321;28;19970;-78
2023/06/08 04:09:46;;;;;;;;;;;;;;;14.54;83.26;96280.03;5044757;28;19950;-75
2023/06/08 04:12:12;;;;;;;;;;;;;;;14.57;83.86;96276.91;5044345;28;19972;-76
2023/06/08 04:14:38;;;;;;;;;;;;;;;14.61;82.78;96270.09;5044438;28;19945;-75
2023/06/08 04:17:04;;;;;;;;;;;;;;;14.67;84.83;96279.66;5044387;28;19957;-74
2023/06/08 04:19:30;;;;;;;;;;;;;;;14.73;83.72;96272.63;5044024;28;19957;-74
2023/06/08 04:21:56;;;;;;;;;;;;;;;14.76;85.80;96272.09;5044067;28;19959;-75
2023/06/08 04:24:23;;;;;;;;;;;;;;;14.76;83.43;96265.00;5044099;28;19956;-75
2023/06/08 04:26:49;;;;;;;;;;;;;;;14.76;83.72;96265.00;5044449;28;19957;-76
2023/06/08 04:29:15;;;;;;;;;;;;;;;14.79;83.50;96263.72;5044106;28;19961;-75
2023/06/08 04:31:41;;;;;;;;;;;;;;;14.76;87.61;96280.84;5043934;28;20257;-76
2023/06/08 04:34:07;;;;;;;;;;;;;;;14.75;82.55;96259.97;5044139;28;20031;-75
2023/06/08 04:36:34;;;;;;;;;;;;;;;14.72;84.61;96273.66;5044278;28;20226;-76
2023/06/08 04:39:01;;;;;;;;;;;;;;;14.72;84.14;96274.47;5044172;28;20151;-76
2023/06/08 04:41:28;;;;;;;;;;;;;;;14.71;83.45;96280.78;5044156;28;19958;-84
2023/06/08 04:43:54;;;;;;;;;;;;;;;14.72;83.06;96269.19;5043697;28;19946;-75
2023/06/08 04:46:25;;;;;;;;;;;;;;;14.72;83.32;96276.28;5043909;28;19956;-76
2023/06/08 04:48:51;;;;;;;;;;;;;;;14.69;85.22;96277.59;5043922;28;19963;-76
2023/06/08 04:51:17;;;;;;;;;;;;;;;14.67;84.24;96271.75;5045766;28;19964;-76
2023/06/08 04:53:43;;;;;;;;;;;;;;;14.65;86.20;96273.84;5047588;28;19982;-76
2023/06/08 04:56:18;;;;;;;;;;;;;;;14.65;87.42;96281.75;5047498;28;19963;-76
2023/06/08 04:58:45;;;;;;;;;;;;;;;14.68;86.13;96276.00;5046511;28;19957;-76
2023/06/08 05:01:11;;;;;;;;;;;;;;;14.72;86.09;96276.28;5047628;28;19960;-75
2023/06/08 05:03:37;;;;;;;;;;;;;;;14.74;86.79;96279.47;5029596;28;19960;-75
2023/06/08 05:06:03;;;;;;;;;;;;;;;14.73;87.20;96297.16;5047621;28;20254;-75
2023/06/08 05:08:29;;;;;;;;;;;;;;;14.73;85.71;96294.53;5047527;28;20238;-76
2023/06/08 05:10:54;;;;;;;;;;;;;;;14.74;86.38;96300.59;5047324;28;20231;-75
2023/06/08 05:13:20;;;;;;;;;;;;;;;14.75;85.76;96296.94;5047019;28;20189;-75
2023/06/08 05:15:46;;;;;;;;;;;;;;;14.79;85.13;96292.75;5047477;28;19955;-75
2023/06/08 05:18:12;;;;;;;;;;;;;;;14.75;86.00;96289.00;5047413;28;20026;-77
2023/06/08 05:20:38;;;;;;;;;;;;;;;14.75;86.16;96289.00;5047036;28;19955;-75
2023/06/08 05:23:04;;;;;;;;;;;;;;;14.78;85.67;96277.94;5047268;28;20146;-77
2023/06/08 05:25:30;;;;;;;;;;;;;;;14.85;86.32;96277.75;5047235;28;19966;-75
2023/06/08 05:27:56;;;;;;;;;;;;;;;14.91;86.27;96280.19;5046932;28;19996;-75
2023/06/08 05:30:22;;;;;;;;;;;;;;;14.97;86.46;96279.22;5047114;28;19976;-75
2023/06/08 05:32:48;;;;;;;;;;;;;;;15.01;85.98;96288.22;5046376;28;20038;-75
2023/06/08 05:35:13;;;;;;;;;;;;;;;15.05;86.02;96285.88;5047029;28;19988;-75
2023/06/08 05:37:39;;;;;;;;;;;;;;;15.18;87.22;96287.28;5047136;28;20019;-81
2023/06/08 05:40:06;;;;;;;;;;;;;;;15.31;85.26;96280.81;5046909;28;20249;-86
2023/06/08 05:42:31;;;;;;;;;;;;;;;15.50;85.27;96273.31;5046492;28;19964;-86
2023/06/08 05:44:57;;;;;;;;;;;;;;;15.62;83.51;96264.16;5046482;28;20232;-87
2023/06/08 05:47:23;;;;;;;;;;;;;;;15.77;84.77;96268.75;5046859;28;19952;-86
2023/06/08 05:49:49;;;;;;;;;;;;;;;15.66;85.56;96277.63;5046432;28;19997;-86
2023/06/08 05:52:15;;;;;;;;;;;;;;;15.48;83.96;96270.91;5046364;28;20003;-86
2023/06/08 05:54:41;;;;;;;;;;;;;;;15.43;83.79;96273.50;5046486;28;19955;-82
2023/06/08 05:57:06;;;;;;;;;;;;;;;15.43;83.21;96270.84;5046736;28;19955;-78
2023/06/08 05:59:32;;;;;;;;;;;;;;;15.47;83.66;96274.59;5046462;28;19963;-76
2023/06/08 06:01:58;;;;;;;;;;;;;;;15.59;82.88;96275.22;5045297;28;19951;-77
2023/06/08 06:04:24;;;;;;;;;;;;;;;15.85;80.50;96262.19;5046290;28;19986;-77
2023/06/08 06:06:50;;;;;;;;;;;;;;;16.15;80.15;96252.84;5046469;28;19965;-78
2023/06/08 06:09:16;;;;;;;;;;;;;;;16.32;79.32;96256.06;5046700;28;19953;-77
2023/06/08 06:11:42;;;;;;;;;;;;;;;16.64;78.39;96247.19;5045401;28;20124;-77
2023/06/08 06:14:08;;;;;;;;;;;;;;;16.98;76.51;96236.13;5045881;28;19963;-78
2023/06/08 06:16:34;;;;;;;;;;;;;;;17.30;75.32;96227.13;5045362;28;19962;-77
2023/06/08 06:18:59;;;;;;;;;;;;;;;17.59;74.56;96224.72;5044649;28;19970;-76
2023/06/08 06:21:26;;;;;;;;;;;;;;;17.85;73.72;96209.59;5044588;28;19961;-76
2023/06/08 06:23:52;;;;;;;;;;;;;;;18.07;73.41;96214.53;5045600;28;19982;-76
2023/06/08 06:26:18;;;;;;;;;;;;;;;18.24;72.78;96214.22;5045887;28;20135;-76
2023/06/08 06:28:43;;;;;;;;;;;;;;;18.39;72.20;96211.47;5045854;28;19961;-76
2023/06/08 06:31:09;;;;;;;;;;;;;;;18.44;72.35;96211.47;5045702;28;19972;-76
2023/06/08 06:33:35;;;;;;;;;;;;;;;18.57;72.86;96226.00;5045924;28;19965;-76
2023/06/08 06:36:01;;;;;;;;;;;;;;;18.62;72.47;96227.81;5044497;28;19964;-75
2023/06/08 06:38:27;;;;;;;;;;;;;;;18.81;71.86;96225.34;5045931;28;19955;-75
2023/06/08 06:40:53;;;;;;;;;;;;;;;19.08;71.24;96222.25;5044322;28;19961;-76
2023/06/08 06:43:20;;;;;;;;;;;;;;;19.48;69.84;96212.34;5045818;28;19968;-76
2023/06/08 06:45:50;;;;;;;;;;;;;;;19.83;68.62;96213.09;5046017;28;19946;-75
2023/06/08 06:48:20;;;;;;;;;;;;;;;19.92;67.93;96203.41;5045497;28;20226;-75
2023/06/08 06:50:46;;;;;;;;;;;;;;;19.97;66.96;96210.53;5045372;28;19951;-73
2023/06/08 06:53:11;;;;;;;;;;;;;;;19.96;67.24;96215.06;5043904;28;20153;-75
2023/06/08 06:55:38;;;;;;;;;;;;;;;20.17;67.10;96201.53;5045400;28;19955;-75
2023/06/08 06:58:04;;;;;;;;;;;;;;;20.47;67.66;96214.47;5045346;28;19954;-76
2023/06/08 07:00:36;;;;;;;;;;;;;;;20.53;66.80;96209.06;5045457;28;19952;-76
2023/06/08 07:03:04;;;;;;;;;;;;;;;20.42;65.60;96203.84;5045906;28;19957;-76
2023/06/08 07:05:30;;;;;;;;;;;;;;;20.44;66.21;96201.69;5045336;28;19969;-75
2023/06/08 07:07:56;;;;;;;;;;;;;;;20.65;66.37;96204.91;5045052;28;20129;-76
2023/06/08 07:10:22;;;;;;;;;;;;;;;20.61;65.54;96203.91;5045308;28;19957;-85
2023/06/08 07:12:47;;;;;;;;;;;;;;;20.54;66.95;96210.66;5045327;28;20015;-76
2023/06/08 07:15:13;;;;;;;;;;;;;;;20.33;66.70;96210.13;5044675;28;19976;-76
2023/06/08 07:17:39;;;;;;;;;;;;;;;20.30;67.17;96218.66;5044141;28;20107;-76
2023/06/08 07:20:05;;;;;;;;;;;;;;;20.34;67.19;96222.34;5044817;28;19966;-76
2023/06/08 07:22:31;;;;;;;;;;;;;;;20.22;67.88;96220.91;5044962;28;19962;-76
2023/06/08 07:24:58;;;;;;;;;;;;;;;20.16;68.60;96229.22;5044767;28;19952;-76
2023/06/08 07:27:24;;;;;;;;;;;;;;;20.12;69.63;96237.00;5045060;28;19955;-76
2023/06/08 07:29:49;;;;;;;;;;;;;;;20.14;67.95;96228.69;5044975;28;20002;-86
2023/06/08 07:32:15;;;;;;;;;;;;;;;20.21;68.18;96229.94;5044735;28;19968;-75
2023/06/08 07:34:41;;;;;;;;;;;;;;;20.38;67.57;96228.69;5044906;28;19959;-75
2023/06/08 07:37:07;;;;;;;;;;;;;;;20.47;67.45;96232.28;5043375;28;19960;-76
2023/06/08 07:39:33;;;;;;;;;;;;;;;20.52;68.13;96234.91;5045039;28;19942;-75
2023/06/08 07:41:59;;;;;;;;;;;;;;;20.74;67.77;96229.03;5044709;28;19961;-75
2023/06/08 07:44:24;;;;;;;;;;;;;;;20.86;66.45;96221.41;5044381;28;19955;-75
2023/06/08 07:46:50;;;;;;;;;;;;;;;20.81;66.17;96226.00;5044509;28;20138;-78
2023/06/08 07:49:16;;;;;;;;;;;;;;;20.70;66.35;96227.22;5044403;28;20028;-86
2023/06/08 07:51:43;;;;;;;;;;;;;;;20.55;67.38;96239.66;5044746;28;20174;-86
2023/06/08 07:54:10;;;;;;;;;;;;;;;20.41;67.30;96242.25;5044476;28;20283;-86
2023/06/08 07:56:36;;;;;;;;;;;;;;;20.32;67.15;96232.50;5044770;28;19957;-86
2023/06/08 07:59:02;;;;;;;;;;;;;;;20.25;67.56;96244.28;5044506;28;19957;-87
2023/06/08 08:01:28;;;;;;;;;;;;;;;20.20;68.11;96240.88;5044710;28;19959;-86
2023/06/08 08:03:54;;;;;;;;;;;;;;;20.20;69.87;96254.19;5044093;28;19959;-76
2023/06/08 08:06:20;;;;;;;;;;;;;;;20.28;69.95;96242.91;5043195;28;19957;-75
2023/06/08 08:08:45;;;;;;;;;;;;;;;20.38;69.19;96245.47;5044898;28;19946;-87
2023/06/08 08:11:11;;;;;;;;;;;;;;;20.54;69.63;96247.94;5044015;28;20262;-87
2023/06/08 08:13:37;;;;;;;;;;;;;;;20.77;68.88;96251.66;5044689;28;20267;-86
2023/06/08 08:16:04;;;;;;;;;;;;;;;21.03;67.53;96247.53;5044614;28;19956;-87
2023/06/08 08:18:30;;;;;;;;;;;;;;;21.29;66.76;96233.81;5044163;28;19977;-86
2023/06/08 08:20:56;;;;;;;;;;;;;;;21.61;65.47;96226.91;5044915;28;19984;-86
2023/06/08 08:23:21;;;;;;;;;;;;;;;21.99;63.96;96208.06;5043854;28;19951;-77
2023/06/08 08:25:47;;;;;;;;;;;;;;;22.34;63.31;96214.59;5045259;28;20001;-76
2023/06/08 08:28:13;;;;;;;;;;;;;;;22.66;60.66;96210.19;5048131;28;19949;-76
2023/06/08 08:30:39;;;;;;;;;;;;;;;22.85;59.91;96210.03;5048332;28;19995;-76
2023/06/08 08:33:05;;;;;;;;;;;;;;;22.85;58.50;96199.34;5048884;28;19966;-75
2023/06/08 08:35:32;;;;;;;;;;;;;;;22.70;59.48;96219.97;5048214;28;20110;-76
2023/06/08 08:37:58;;;;;;;;;;;;;;;22.71;60.32;96223.44;5047588;28;19943;-76
2023/06/08 08:40:24;;;;;;;;;;;;;;;22.72;58.87;96210.84;5047181;28;19967;-74
2023/06/08 08:42:55;;;;;;;;;;;;;;;22.78;60.30;96220.34;5048321;28;20134;-74
2023/06/08 08:45:27;;;;;;;;;;;;;;;22.87;60.18;96221.22;5046469;28;19962;-75
2023/06/08 08:47:55;;;;;;;;;;;;;;;22.97;62.10;96222.84;5048100;28;19958;-76
2023/06/08 08:50:21;;;;;;;;;;;;;;;23.09;59.05;96213.22;5047737;28;19961;-76
2023/06/08 08:52:53;;;;;;;;;;;;;;;23.19;60.15;96212.19;5047244;28;20050;-76
2023/06/08 08:55:27;;;;;;;;;;;;;;;23.44;58.81;96215.34;5046616;28;20231;-75
2023/06/08 08:57:57;;;;;;;;;;;;;;;23.77;57.98;96209.69;5047896;28;19960;-77
2023/06/08 09:00:23;;;;;;;;;;;;;;;24.07;57.08;96208.09;5047160;28;20270;-75
2023/06/08 09:02:50;;;;;;;;;;;;;;;24.08;54.88;96205.09;5047977;28;19955;-76
2023/06/08 09:05:16;;;;;;;;;;;;;;;23.94;54.85;96211.66;5046694;28;19960;-76
2023/06/08 09:07:42;;;;;;;;;;;;;;;23.78;54.40;96212.06;5047454;28;19953;-76
2023/06/08 09:10:12;;;;;;;;;;;;;;;23.71;56.70;96228.56;5046547;28;19960;-76
2023/06/08 09:12:39;;;;;;;;;;;;;;;23.65;54.56;96216.41;5047293;28;19962;-78
2023/06/08 09:15:05;;;;;;;;;;;;;;;23.54;56.13;96220.44;5047530;28;19960;-76
2023/06/08 09:17:37;;;;;;;;;;;;;;;23.48;52.59;96208.28;5047273;28;20230;-73
2023/06/08 09:20:08;;;;;;;;;;;;;;;23.50;53.43;96214.13;5047510;28;19971;-74
2023/06/08 09:22:36;;;;;;;;;;;;;;;23.58;55.59;96221.41;5047345;28;19993;-75
2023/06/08 09:25:06;;;;;;;;;;;;;;;23.75;53.89;96211.88;5047213;28;19973;-76
2023/06/08 09:27:32;;;;;;;;;;;;;;;24.06;51.88;96207.28;5046747;28;20040;-75
2023/06/08 09:29:59;;;;;;;;;;;;;;;24.29;52.29;96205.28;5046033;28;20146;-75
2023/06/08 09:32:32;;;;;;;;;;;;;;;24.32;52.67;96198.56;5046776;28;19959;-75
2023/06/08 09:35:02;;;;;;;;;;;;;;;24.19;50.32;96219.00;5046735;28;19957;-76
2023/06/08 09:37:33;;;;;;;;;;;;;;;24.09;51.10;96211.25;5044889;28;21071;-74
2023/06/08 09:39:59;;;;;;;;;;;;;;;23.98;50.03;96216.09;5046923;28;20135;-76
2023/06/08 09:42:44;;;;;;;;;;;;;;;23.91;50.18;96202.34;5046776;28;20222;-76
2023/06/08 09:45:12;;;;;;;;;;;;;;;23.86;51.25;96202.50;5028939;28;19955;-76
2023/06/08 09:47:38;;;;;;;;;;;;;;;23.79;50.86;96202.97;5046787;28;20237;-76
2023/06/08 09:50:06;;;;;;;;;;;;;;;23.79;51.44;96202.97;5046767;28;20107;-76
2023/06/08 09:52:33;;;;;;;;;;;;;;;24.04;51.39;96198.81;5045594;28;19985;-76
2023/06/08 09:54:59;;;;;;;;;;;;;;;24.38;50.97;96191.13;5046917;28;19966;-74
2023/06/08 09:57:27;;;;;;;;;;;;;;;24.69;49.18;96180.31;5045754;28;19996;-74
2023/06/08 09:59:54;;;;;;;;;;;;;;;25.03;47.74;96173.34;5046356;28;19948;-75
2023/06/08 10:02:46;;;;;;;;;;;;;;;25.28;48.88;96175.25;5046337;28;20226;-75
2023/06/08 10:05:14;;;;;;;;;;;;;;;25.54;48.50;96177.06;5042699;28;20146;-75
2023/06/08 10:07:41;;;;;;;;;;;;;;;25.67;49.16;96172.59;5046376;28;19954;-74
2023/06/08 10:10:13;;;;;;;;;;;;;;;25.71;48.11;96178.91;5046267;28;19954;-75
2023/06/08 10:12:40;;;;;;;;;;;;;;;25.91;45.62;96174.72;5046324;28;19988;-74
2023/06/08 10:15:07;;;;;;;;;;;;;;;26.02;47.86;96180.56;5044752;28;19955;-76
2023/06/08 10:17:33;;;;;;;;;;;;;;;25.87;46.17;96182.63;5046117;28;19959;-76
2023/06/08 10:19:59;;;;;;;;;;;;;;;25.64;46.89;96192.03;5044579;28;19959;-76
2023/06/08 10:22:26;;;;;;;;;;;;;;;25.36;48.06;96192.44;5045856;28;20238;-76
2023/06/08 10:24:52;;;;;;;;;;;;;;;25.01;43.81;96184.41;5045840;28;19965;-76
2023/06/08 10:27:18;;;;;;;;;;;;;;;24.76;46.10;96194.06;5045780;28;19953;-76
2023/06/08 10:29:57;;;;;;;;;;;;;;;24.64;49.06;96207.28;5045129;28;20123;-76
2023/06/08 10:32:29;;;;;;;;;;;;;;;24.56;47.63;96205.38;5045111;28;19971;-84
2023/06/08 10:34:57;;;;;;;;;;;;;;;24.51;48.46;96209.78;5045126;28;19959;-77
2023/06/08 10:37:33;;;;;;;;;;;;;;;24.43;48.94;96207.84;5045180;28;20170;-76
2023/06/08 10:40:06;;;;;;;;;;;;;;;24.43;50.59;96209.75;5044591;28;19951;-76
2023/06/08 10:42:32;;;;;;;;;;;;;;;24.41;47.76;96199.34;5045005;28;19963;-77
2023/06/08 10:44:58;;;;;;;;;;;;;;;24.43;49.25;96205.19;5044861;28;19949;-76
2023/06/08 10:47:25;;;;;;;;;;;;;;;24.42;49.31;96200.13;5045222;28;19957;-76
2023/06/08 10:49:56;;;;;;;;;;;;;;;24.39;49.58;96193.50;5044419;28;19963;-76
2023/06/08 10:52:22;;;;;;;;;;;;;;;24.39;49.24;96198.88;5044534;28;19968;-77
2023/06/08 10:55:04;;;;;;;;;;;;;;;24.42;49.79;96192.91;5044863;28;20129;-77
2023/06/08 10:57:38;;;;;;;;;;;;;;;24.56;49.62;96191.97;5045252;28;19944;-76
2023/06/08 11:00:16;;;;;;;;;;;;;;;24.81;48.17;96185.06;5045573;28;19956;-76
2023/06/08 11:02:43;;;;;;;;;;;;;;;25.07;47.72;96179.66;5045014;28;19953;-76
2023/06/08 11:05:09;;;;;;;;;;;;;;;25.34;48.15;96180.44;5045308;28;20245;-77
2023/06/08 11:07:35;;;;;;;;;;;;;;;25.38;46.12;96174.09;5045438;28;19948;-77
2023/06/08 11:10:03;;;;;;;;;;;;;;;25.35;46.58;96171.28;5043769;28;19959;-77
2023/06/08 11:12:30;;;;;;;;;;;;;;;25.29;47.13;96176.81;5044339;28;19958;-75
2023/06/08 11:14:55;;;;;;;;;;;;;;;25.12;45.67;96168.78;5044375;28;19957;-76
2023/06/08 11:17:21;;;;;;;;;;;;;;;24.85;46.31;96168.00;5044627;28;19946;-75
2023/06/08 11:19:47;;;;;;;;;;;;;;;24.64;47.54;96172.44;5045148;28;19960;-75
2023/06/08 11:22:13;;;;;;;;;;;;;;;24.43;47.01;96159.63;5044445;28;19989;-75
2023/06/08 11:24:41;;;;;;;;;;;;;;;24.34;49.15;96171.41;5045283;28;19973;-75
2023/06/08 11:27:07;;;;;;;;;;;;;;;24.21;47.90;96173.94;5044624;28;19957;-85
2023/06/08 11:29:33;;;;;;;;;;;;;;;24.02;46.86;96173.41;5044489;28;20261;-83
2023/06/08 11:32:10;;;;;;;;;;;;;;;23.82;48.36;96182.81;5044339;28;19993;-83
2023/06/08 11:34:36;;;;;;;;;;;;;;;23.63;47.87;96174.97;5044958;28;19959;-84
2023/06/08 11:37:02;;;;;;;;;;;;;;;23.44;49.94;96180.56;5044409;28;20236;-85
2023/06/08 11:39:33;;;;;;;;;;;;;;;23.19;50.99;96181.97;5044635;28;19991;-85
2023/06/08 11:42:00;;;;;;;;;;;;;;;22.97;53.06;96188.88;5044120;28;19951;-85
2023/06/08 11:44:26;;;;;;;;;;;;;;;22.85;52.81;96197.44;5044671;28;20029;-78
2023/06/08 11:46:52;;;;;;;;;;;;;;;22.75;51.30;96202.25;5044761;28;19956;-77
2023/06/08 11:49:18;;;;;;;;;;;;;;;22.73;53.94;96217.78;5044650;28;19939;-75
2023/06/08 11:51:49;;;;;;;;;;;;;;;22.72;50.67;96213.53;5044896;28;19991;-75
2023/06/08 11:54:15;;;;;;;;;;;;;;;22.60;51.21;96214.06;5044783;28;19959;-75
2023/06/08 11:56:45;;;;;;;;;;;;;;;22.45;53.91;96226.66;5044607;28;19957;-74
2023/06/08 11:59:12;;;;;;;;;;;;;;;22.29;54.57;96226.16;5044744;28;20123;-75
2023/06/08 12:01:53;;;;;;;;;;;;;;;22.22;56.17;96230.31;5043506;28;19965;-75
2023/06/08 12:04:19;;;;;;;;;;;;;;;22.22;58.78;96214.28;5044568;28;19958;-76
2023/06/08 12:06:45;;;;;;;;;;;;;;;22.26;59.88;96217.97;5044552;28;19969;-76
2023/06/08 12:09:11;;;;;;;;;;;;;;;22.29;59.78;96201.34;5044443;28;19955;-76
2023/06/08 12:11:37;;;;;;;;;;;;;;;22.24;61.49;96202.25;5043839;28;20004;-76
2023/06/08 12:14:03;;;;;;;;;;;;;;;22.20;60.87;96192.44;5043131;28;20018;-76
2023/06/08 12:16:41;;;;;;;;;;;;;;;22.21;61.70;96194.00;5043827;28;19972;-77
2023/06/08 12:19:07;;;;;;;;;;;;;;;22.25;61.13;96195.81;5043523;28;20252;-76
2023/06/08 12:21:38;;;;;;;;;;;;;;;22.20;59.99;96193.22;5043338;28;19972;-75
2023/06/08 12:24:04;;;;;;;;;;;;;;;22.01;57.36;96177.31;5043697;28;19956;-74
2023/06/08 12:26:30;;;;;;;;;;;;;;;21.98;60.71;96191.25;5043931;28;19954;-74
2023/06/08 12:29:04;;;;;;;;;;;;;;;22.01;59.95;96188.00;5044240;28;19989;-75
2023/06/08 12:31:30;;;;;;;;;;;;;;;22.04;59.86;96182.03;5043750;28;20259;-74
2023/06/08 12:33:56;;;;;;;;;;;;;;;22.02;57.68;96175.41;5044208;28;19961;-76
2023/06/08 12:36:22;;;;;;;;;;;;;;;21.91;57.08;96160.69;5044261;28;19954;-75
2023/06/08 12:38:48;;;;;;;;;;;;;;;21.83;58.24;96168.31;5043698;28;19936;-74
2023/06/08 12:41:14;;;;;;;;;;;;;;;21.74;53.62;96158.63;5043784;28;20120;-86
2023/06/08 12:43:44;;;;;;;;;;;;;;;21.68;55.81;96173.94;5044238;28;20014;-76
2023/06/08 12:46:11;;;;;;;;;;;;;;;21.60;56.59;96177.28;5044134;28;19958;-77
2023/06/08 12:48:36;;;;;;;;;;;;;;;21.56;58.53;96170.97;5043799;28;19950;-76